| time (UTC) | temp C | wind direction | speed KPH | gust KPH | rain 1hr cm | rain 24hr cm | rain mn cm | humidity % | barometer mb |
| 20260510201554 | 31 | 194 | 4.8 | 16.1 | 0.00 | 0.03 | 0.00 | 64 | 1015.9 |
| 20260510200052 | 31 | 213 | 6.4 | 24.1 | 0.00 | 0.03 | 0.00 | 62 | 1015.9 |
| 20260510194558 | 30 | 226 | 6.4 | 14.5 | 0.00 | 0.03 | 0.00 | 67 | 1016.1 |
| 20260510193055 | 27 | 173 | 3.2 | 14.5 | 0.00 | 0.03 | 0.00 | 79 | 1016.1 |
| 20260510191550 | 26 | 216 | 6.4 | 12.9 | 0.00 | 0.03 | 0.00 | 83 | 1016.3 |
| 20260510190052 | 26 | 194 | 4.8 | 17.7 | 0.00 | 0.03 | 0.00 | 84 | 1016.3 |
| 20260510184558 | 28 | 181 | 14.5 | 27.4 | 0.00 | 0.03 | 0.00 | 70 | 1016.3 |
| 20260510183053 | 31 | 150 | 11.3 | 24.1 | 0.00 | 0.03 | 0.00 | 63 | 1016.5 |
| 20260510181607 | 32 | 159 | 12.9 | 32.2 | 0.00 | 0.03 | 0.00 | 59 | 1016.5 |
| 20260510180107 | 30 | 140 | 9.7 | 22.5 | 0.00 | 0.03 | 0.00 | 63 | 1016.3 |
| 20260510174555 | 32 | 196 | 4.8 | 16.1 | 0.00 | 0.03 | 0.00 | 56 | 1016.3 |
| 20260510173059 | 33 | 180 | 4.8 | 16.1 | 0.00 | 0.03 | 0.00 | 53 | 1016.4 |
| 20260510171551 | 33 | 155 | 4.8 | 16.1 | 0.00 | 0.03 | 0.00 | 54 | 1016.7 |
| 20260510170052 | 32 | 217 | 3.2 | 12.9 | 0.00 | 0.03 | 0.00 | 57 | 1017.0 |
| 20260510164600 | 31 | 137 | 3.2 | 14.5 | 0.00 | 0.03 | 0.00 | 61 | 1017.3 |
| 20260510163054 | 32 | 214 | 3.2 | 11.3 | 0.00 | 0.03 | 0.00 | 61 | 1017.6 |
| 20260510161604 | 32 | 179 | 4.8 | 11.3 | 0.00 | 0.03 | 0.00 | 59 | 1017.6 |
| 20260510160055 | 31 | 215 | 8.0 | 17.7 | 0.00 | 0.03 | 0.00 | 63 | 1017.5 |
| 20260510154557 | 31 | 144 | 4.8 | 16.1 | 0.00 | 0.03 | 0.00 | 65 | 1017.5 |
| 20260510153101 | 31 | 161 | 4.8 | 12.9 | 0.00 | 0.03 | 0.00 | 65 | 1017.4 |
| 20260510151555 | 30 | 114 | 6.4 | 20.9 | 0.00 | 0.03 | 0.00 | 68 | 1017.5 |
| 20260510150124 | 29 | 208 | 8.0 | 16.1 | 0.00 | 0.03 | 0.00 | 70 | 1017.4 |
| 20260510144555 | 29 | 213 | 6.4 | 14.5 | 0.00 | 0.03 | 0.00 | 72 | 1017.3 |
| 20260510143056 | 28 | 140 | 8.0 | 17.7 | 0.00 | 0.03 | 0.00 | 75 | 1017.2 |
| 20260510141552 | 27 | 146 | 9.7 | 16.1 | 0.00 | 0.03 | 0.00 | 78 | 1017.2 |
| 20260510140052 | 27 | 134 | 6.4 | 12.9 | 0.00 | 0.03 | 0.00 | 80 | 1017.4 |
| 20260510134551 | 26 | 129 | 6.4 | 12.9 | 0.00 | 0.03 | 0.00 | 83 | 1017.3 |
| 20260510133051 | 26 | 151 | 4.8 | 12.9 | 0.00 | 0.03 | 0.00 | 86 | 1017.1 |
| 20260510131552 | 26 | 145 | 3.2 | 11.3 | 0.00 | 0.03 | 0.00 | 87 | 1017.0 |
| 20260510130055 | 25 | 128 | 3.2 | 9.7 | 0.00 | 0.03 | 0.00 | 90 | 1017.0 |
| 20260510124555 | 24 | 186 | 1.6 | 4.8 | 0.00 | 0.03 | 0.00 | 92 | 1016.9 |
| 20260510123056 | 23 | 144 | 1.6 | 6.4 | 0.00 | 0.03 | 0.00 | 92 | 1016.7 |
| 20260510121548 | 23 | 148 | 1.6 | 4.8 | 0.00 | 0.03 | 0.00 | 93 | 1016.6 |
| 20260510120054 | 23 | 140 | 3.2 | 8.0 | 0.00 | 0.03 | 0.00 | 94 | 1016.2 |
| 20260510114559 | 23 | 148 | 0.0 | 3.2 | 0.00 | 0.03 | 0.00 | 94 | 1016.1 |
| 20260510113054 | 22 | 0 | 0.0 | 4.8 | 0.00 | 0.03 | 0.00 | 95 | 1015.9 |
| 20260510111602 | 22 | 0 | 0.0 | 0.0 | 0.00 | 0.03 | 0.00 | 95 | 1015.5 |
| 20260510110052 | 22 | 0 | 0.0 | 3.2 | 0.00 | 0.03 | 0.00 | 95 | 1015.4 |
| 20260510104552 | 22 | 138 | 3.2 | 8.0 | 0.00 | 0.03 | 0.00 | 95 | 1015.3 |
| 20260510103059 | 22 | 0 | 0.0 | 3.2 | 0.00 | 0.03 | 0.00 | 95 | 1015.2 |
| 20260510101558 | 22 | 0 | 1.6 | 6.4 | 0.00 | 0.03 | 0.00 | 95 | 1014.7 |
| 20260510100052 | 22 | 0 | 0.0 | 4.8 | 0.00 | 0.03 | 0.00 | 95 | 1014.7 |
| 20260510094604 | 23 | 173 | 1.6 | 8.0 | 0.00 | 0.03 | 0.00 | 94 | 1014.5 |
| 20260510093111 | 23 | 142 | 1.6 | 6.4 | 0.00 | 0.03 | 0.00 | 94 | 1014.5 |
| 20260510091554 | 23 | 149 | 3.2 | 8.0 | 0.00 | 0.03 | 0.00 | 94 | 1014.4 |
| 20260510090114 | 23 | 144 | 3.2 | 8.0 | 0.00 | 0.03 | 0.00 | 94 | 1014.3 |
| 20260510084552 | 23 | 96 | 0.0 | 4.8 | 0.00 | 0.03 | 0.00 | 94 | 1014.0 |
| 20260510083105 | 23 | 121 | 1.6 | 9.7 | 0.00 | 0.03 | 0.00 | 94 | 1013.9 |
| 20260510081553 | 23 | 119 | 3.2 | 9.7 | 0.00 | 0.03 | 0.00 | 94 | 1013.8 |
| 20260510080059 | 23 | 128 | 1.6 | 6.4 | 0.00 | 0.03 | 0.00 | 94 | 1014.1 |
| 20260510074554 | 23 | 131 | 3.2 | 9.7 | 0.00 | 0.03 | 0.00 | 94 | 1014.1 |
| 20260510073056 | 23 | 118 | 1.6 | 11.3 | 0.00 | 0.03 | 0.00 | 94 | 1014.4 |
| 20260510071613 | 23 | 128 | 1.6 | 6.4 | 0.00 | 0.03 | 0.00 | 94 | 1014.4 |
| 20260510070051 | 22 | 140 | 1.6 | 4.8 | 0.00 | 0.03 | 0.00 | 94 | 1014.4 |
| 20260510064600 | 22 | 109 | 1.6 | 9.7 | 0.00 | 0.03 | 0.00 | 94 | 1014.8 |
| 20260510063052 | 22 | 167 | 3.2 | 6.4 | 0.00 | 0.03 | 0.00 | 94 | 1015.0 |
| 20260510061558 | 22 | 100 | 0.0 | 4.8 | 0.00 | 0.03 | 0.00 | 94 | 1015.2 |
| 20260510060055 | 22 | 101 | 3.2 | 6.4 | 0.00 | 0.03 | 0.00 | 95 | 1015.3 |
| 20260510054552 | 22 | 0 | 0.0 | 0.0 | 0.00 | 0.03 | 0.00 | 95 | 1015.3 |
| 20260510053054 | 22 | 0 | 0.0 | 4.8 | 0.00 | 0.03 | 0.00 | 94 | 1015.5 |
| 20260510051601 | 22 | 98 | 0.0 | 4.8 | 0.00 | 0.03 | 0.00 | 94 | 1015.6 |
| 20260510050054 | 22 | 0 | 0.0 | 1.6 | 0.00 | 0.03 | 0.00 | 94 | 1015.9 |
| 20260510044610 | 22 | 100 | 0.0 | 3.2 | 0.00 | 0.03 | 0.00 | 94 | 1016.0 |
| 20260510043053 | 22 | 0 | 0.0 | 1.6 | 0.00 | 0.03 | 0.00 | 94 | 1016.0 |
| 20260510041558 | 22 | 0 | 0.0 | 3.2 | 0.00 | 0.03 | 0.00 | 94 | 1016.2 |
| 20260510040059 | 22 | 0 | 0.0 | 1.6 | 0.00 | 0.03 | 0.00 | 93 | 1016.1 |
| 20260510034552 | 22 | 0 | 0.0 | 1.6 | 0.00 | 0.03 | 0.03 | 93 | 1016.2 |
| 20260510033102 | 22 | 11 | 0.0 | 3.2 | 0.00 | 0.03 | 0.03 | 93 | 1016.0 |
| 20260510031553 | 22 | 11 | 0.0 | 3.2 | 0.00 | 0.03 | 0.03 | 92 | 1016.1 |
| 20260510024553 | 22 | 0 | 0.0 | 4.8 | 0.00 | 0.03 | 0.03 | 91 | 1015.7 |
| 20260510023054 | 23 | 74 | 0.0 | 3.2 | 0.00 | 0.03 | 0.03 | 90 | 1015.6 |
| 20260510021559 | 23 | 0 | 0.0 | 3.2 | 0.00 | 0.03 | 0.03 | 88 | 1015.6 |
| 20260510020056 | 23 | 0 | 0.0 | 3.2 | 0.00 | 0.03 | 0.03 | 88 | 1015.6 |
| 20260510014556 | 23 | 0 | 0.0 | 4.8 | 0.00 | 0.03 | 0.03 | 87 | 1015.3 |
| 20260510013055 | 23 | 346 | 1.6 | 6.4 | 0.00 | 0.03 | 0.03 | 87 | 1015.2 |
| 20260510011600 | 23 | 347 | 1.6 | 4.8 | 0.00 | 0.03 | 0.03 | 87 | 1015.1 |
| 20260510010058 | 23 | 300 | 1.6 | 8.0 | 0.00 | 0.03 | 0.03 | 86 | 1015.1 |
| 20260510004556 | 24 | 332 | 4.8 | 14.5 | 0.03 | 0.03 | 0.03 | 87 | 1015.1 |
| 20260510003100 | 24 | 352 | 4.8 | 17.7 | 0.03 | 0.03 | 0.03 | 90 | 1014.5 |
| 20260510001557 | 24 | 316 | 6.4 | 14.5 | 0.03 | 0.03 | 0.03 | 90 | 1014.2 |
| 20260510000058 | 25 | 347 | 3.2 | 9.7 | 0.03 | 0.03 | 0.03 | 89 | 1014.2 |
| 20260509234555 | 25 | 330 | 3.2 | 16.1 | 0.00 | 0.00 | 0.00 | 87 | 1014.0 |
| 20260509233054 | 25 | 347 | 4.8 | 14.5 | 0.00 | 0.00 | 0.00 | 86 | 1013.8 |
| 20260509231552 | 26 | 14 | 4.8 | 14.5 | 0.00 | 0.00 | 0.00 | 85 | 1013.7 |
| 20260509230059 | 26 | 336 | 3.2 | 12.9 | 0.00 | 0.00 | 0.00 | 84 | 1013.7 |
| 20260509224629 | 26 | 19 | 8.0 | 20.9 | 0.00 | 0.00 | 0.00 | 83 | 1013.5 |
| 20260509223057 | 27 | 332 | 8.0 | 19.3 | 0.00 | 0.00 | 0.00 | 80 | 1013.2 |
| 20260509221555 | 28 | 335 | 8.0 | 20.9 | 0.00 | 0.00 | 0.00 | 76 | 1013.1 |
| 20260509220106 | 29 | 338 | 9.7 | 19.3 | 0.00 | 0.00 | 0.00 | 72 | 1012.8 |
| 20260509214600 | 30 | 292 | 6.4 | 11.3 | 0.00 | 0.00 | 0.00 | 68 | 1012.7 |
| 20260509213119 | 29 | 348 | 4.8 | 9.7 | 0.00 | 0.00 | 0.00 | 71 | 1012.7 |
| 20260509211554 | 28 | 333 | 3.2 | 11.3 | 0.00 | 0.00 | 0.00 | 75 | 1012.5 |
| 20260509210106 | 28 | 311 | 3.2 | 12.9 | 0.00 | 0.00 | 0.00 | 76 | 1012.5 |
| 20260509204555 | 28 | 301 | 0.0 | 3.2 | 0.00 | 0.00 | 0.00 | 77 | 1012.6 |
| 20260509203058 | 27 | 277 | 0.0 | 3.2 | 0.00 | 0.00 | 0.00 | 75 | 1012.4 |